createdAt,value
2023-03-29T00:01:00.757Z,3.50
2023-03-29T00:03:30.910Z,3.05
2023-03-29T00:06:03.258Z,1.95
2023-03-29T00:08:40.329Z,2.08
2023-03-29T00:11:08.795Z,5.60
2023-03-29T00:13:37.020Z,2.70
2023-03-29T00:16:05.582Z,3.22
2023-03-29T00:18:33.536Z,1.95
2023-03-29T00:21:01.889Z,2.53
2023-03-29T00:23:31.952Z,3.25
2023-03-29T00:26:00.068Z,2.88
2023-03-29T00:28:28.131Z,1.98
2023-03-29T00:31:05.856Z,2.50
2023-03-29T00:33:34.455Z,2.13
2023-03-29T00:36:02.377Z,5.97
2023-03-29T00:38:33.161Z,3.40
2023-03-29T00:41:01.622Z,2.05
2023-03-29T00:43:29.924Z,3.83
2023-03-29T00:45:58.193Z,2.72
2023-03-29T00:48:30.291Z,3.55
2023-03-29T00:51:02.115Z,2.97
2023-03-29T00:53:34.530Z,2.55
2023-03-29T00:56:06.552Z,4.10
2023-03-29T00:58:38.466Z,2.40
2023-03-29T01:01:11.159Z,2.63
2023-03-29T01:03:46.802Z,6.13
2023-03-29T01:06:18.298Z,2.53
2023-03-29T01:08:53.031Z,2.00
2023-03-29T01:11:25.171Z,2.92
2023-03-29T01:13:58.589Z,3.25
2023-03-29T01:16:31.324Z,3.88
2023-03-29T01:19:00.649Z,3.97
2023-03-29T01:21:32.689Z,2.53
2023-03-29T01:24:45.579Z,3.05
2023-03-29T01:27:18.490Z,2.47
2023-03-29T01:29:54.370Z,3.83
2023-03-29T01:32:26.521Z,2.80
2023-03-29T01:34:59.905Z,1.58
2023-03-29T01:37:33.227Z,2.22
2023-03-29T01:40:01.830Z,2.67
2023-03-29T01:42:43.046Z,2.42
2023-03-29T01:45:20.952Z,1.30
2023-03-29T01:47:58.097Z,0.93
2023-03-29T01:50:37.818Z,1.02
2023-03-29T01:53:10.099Z,1.35
2023-03-29T01:55:43.397Z,0.90
2023-03-29T01:58:14.088Z,1.13
2023-03-29T02:00:45.428Z,1.50
2023-03-29T02:03:17.816Z,1.55
2023-03-29T02:05:46.556Z,1.83
2023-03-29T02:08:16.395Z,1.05
2023-03-29T02:10:45.285Z,2.10
2023-03-29T02:13:13.293Z,0.80
2023-03-29T02:15:44.637Z,1.45
2023-03-29T02:18:14.007Z,2.03
2023-03-29T02:20:47.542Z,1.70
2023-03-29T02:23:21.552Z,1.30
2023-03-29T02:25:57.216Z,1.38
2023-03-29T02:28:27.992Z,1.30
2023-03-29T02:31:04.866Z,1.45
2023-03-29T02:33:46.469Z,2.17
2023-03-29T02:36:20.013Z,1.88
2023-03-29T02:38:48.313Z,2.22
2023-03-29T02:41:17.342Z,2.38
2023-03-29T02:43:46.574Z,1.20
2023-03-29T02:46:18.487Z,1.88
2023-03-29T02:48:49.373Z,1.52
2023-03-29T02:51:20.810Z,1.90
2023-03-29T02:53:55.943Z,1.33
2023-03-29T02:56:24.262Z,2.65
2023-03-29T02:58:52.120Z,1.77
2023-03-29T03:01:23.184Z,2.15
2023-03-29T03:03:52.226Z,2.20
2023-03-29T03:06:21.525Z,2.38
2023-03-29T03:08:51.002Z,1.40
2023-03-29T03:11:19.107Z,1.42
2023-03-29T03:13:47.616Z,4.13
2023-03-29T03:16:15.593Z,2.35
2023-03-29T03:18:46.299Z,4.05
2023-03-29T03:21:14.283Z,3.38
2023-03-29T03:23:42.356Z,6.07
2023-03-29T03:26:10.951Z,2.10
2023-03-29T03:28:40.468Z,2.97
2023-03-29T03:31:16.226Z,3.10
2023-03-29T03:34:14.511Z,4.22
2023-03-29T03:37:01.968Z,1.85
2023-03-29T03:39:33.974Z,5.10
2023-03-29T03:42:07.858Z,2.95
2023-03-29T03:47:41.334Z,1.83
2023-03-29T03:50:33.843Z,2.67
2023-03-29T03:53:02.304Z,5.72
2023-03-29T03:55:49.336Z,1.95
2023-03-29T03:58:23.227Z,1.27
2023-03-29T04:00:52.199Z,3.00
2023-03-29T04:03:44.862Z,2.30
2023-03-29T04:06:17.570Z,2.20
2023-03-29T04:09:09.555Z,1.80
2023-03-29T04:11:42.876Z,2.38
2023-03-29T04:14:12.616Z,1.45
2023-03-29T04:17:00.633Z,1.15
2023-03-29T04:19:46.981Z,1.33
2023-03-29T04:22:17.174Z,2.15
2023-03-29T04:24:46.211Z,1.30
2023-03-29T04:27:34.767Z,2.38
2023-03-29T04:30:08.593Z,2.35
2023-03-29T04:33:10.818Z,3.15
2023-03-29T04:35:42.812Z,3.28
2023-03-29T04:38:17.630Z,2.45
2023-03-29T04:40:47.547Z,1.98
2023-03-29T04:43:40.101Z,1.63
2023-03-29T04:46:22.221Z,1.73
2023-03-29T04:49:24.676Z,2.30
2023-03-29T04:51:55.144Z,2.15
2023-03-29T04:54:28.894Z,1.95
2023-03-29T04:57:00.574Z,1.67
2023-03-29T04:59:47.014Z,2.30
2023-03-29T05:02:33.742Z,1.27
2023-03-29T05:05:03.337Z,1.90
2023-03-29T05:07:31.640Z,2.53
2023-03-29T05:10:01.050Z,6.15
2023-03-29T05:12:29.013Z,2.60
2023-03-29T05:14:57.842Z,2.35
2023-03-29T05:17:27.715Z,1.98
2023-03-29T05:20:01.573Z,3.97
2023-03-29T05:22:30.108Z,2.20
2023-03-29T05:24:58.011Z,3.15
2023-03-29T05:27:28.041Z,3.08
2023-03-29T05:30:03.801Z,3.97
2023-03-29T05:33:02.849Z,1.73
2023-03-29T05:35:31.745Z,2.53
2023-03-29T05:38:06.260Z,5.75
2023-03-29T05:40:36.092Z,3.05
2023-03-29T05:43:28.754Z,4.53
2023-03-29T05:45:57.282Z,6.47
2023-03-29T05:48:27.441Z,5.90
2023-03-29T05:50:58.149Z,3.97
2023-03-29T05:53:27.832Z,4.43
2023-03-29T05:55:56.633Z,6.22
2023-03-29T05:58:29.080Z,5.50
2023-03-29T06:00:57.369Z,5.53
2023-03-29T06:03:47.702Z,5.55
2023-03-29T06:06:17.979Z,3.45
2023-03-29T06:08:46.657Z,2.83
2023-03-29T06:11:28.527Z,4.38
2023-03-29T06:14:04.925Z,3.42
2023-03-29T06:16:33.433Z,5.05
2023-03-29T06:19:02.322Z,5.20
2023-03-29T06:21:32.020Z,6.38
2023-03-29T06:24:00.958Z,4.00
2023-03-29T06:26:33.867Z,4.07
2023-03-29T06:29:04.765Z,5.90
2023-03-29T06:31:36.423Z,5.82
2023-03-29T06:34:06.937Z,7.65
2023-03-29T06:37:01.432Z,5.90
2023-03-29T06:39:30.221Z,4.45
2023-03-29T06:42:33.218Z,9.35
2023-03-29T06:45:24.354Z,4.82
2023-03-29T06:47:55.057Z,7.13
2023-03-29T06:50:24.647Z,3.97
2023-03-29T06:52:58.731Z,4.97
2023-03-29T06:55:27.384Z,5.43
2023-03-29T06:57:56.429Z,5.38
2023-03-29T07:00:30.041Z,6.65
2023-03-29T07:03:24.966Z,8.05
2023-03-29T07:06:03.008Z,6.65
2023-03-29T07:08:35.376Z,7.32
2023-03-29T07:11:08.764Z,6.93
2023-03-29T07:13:58.029Z,6.93
2023-03-29T07:16:28.651Z,5.80
2023-03-29T07:19:09.790Z,6.07
2023-03-29T07:21:56.408Z,7.72
2023-03-29T07:24:35.715Z,5.53
2023-03-29T07:27:04.938Z,7.22
2023-03-29T07:29:34.903Z,5.40
2023-03-29T07:32:05.897Z,4.65
2023-03-29T07:34:43.150Z,6.57
2023-03-29T07:37:19.521Z,6.95
2023-03-29T07:39:48.466Z,10.00
2023-03-29T07:42:36.878Z,7.22
2023-03-29T07:45:07.703Z,8.93
2023-03-29T07:47:45.639Z,7.32
2023-03-29T07:50:14.923Z,7.93
2023-03-29T07:52:43.743Z,8.80
2023-03-29T07:55:13.563Z,7.38
2023-03-29T07:57:57.103Z,7.03
2023-03-29T08:00:26.524Z,5.60
2023-03-29T08:03:16.708Z,6.30
2023-03-29T08:05:45.305Z,5.75
2023-03-29T08:08:16.478Z,6.18
2023-03-29T08:10:52.219Z,5.47
2023-03-29T08:13:37.201Z,4.28
2023-03-29T08:16:35.695Z,4.90
2023-03-29T08:19:10.719Z,6.50
2023-03-29T08:22:01.348Z,6.13
2023-03-29T08:27:08.248Z,8.93
2023-03-29T08:29:36.628Z,7.72
2023-03-29T08:32:04.720Z,7.93
2023-03-29T08:34:35.719Z,7.22
2023-03-29T08:37:26.045Z,7.97
2023-03-29T08:39:56.389Z,7.20
2023-03-29T08:43:16.158Z,10.15
2023-03-29T08:46:20.862Z,7.05
2023-03-29T08:48:54.498Z,8.35
2023-03-29T08:51:30.871Z,8.25
2023-03-29T08:54:02.278Z,11.23
2023-03-29T08:56:47.962Z,8.70
2023-03-29T08:59:29.969Z,9.00
2023-03-29T09:02:02.788Z,8.02
2023-03-29T09:04:35.060Z,6.22
2023-03-29T09:07:31.137Z,6.97
2023-03-29T09:09:59.792Z,5.80
2023-03-29T09:12:44.695Z,7.25
2023-03-29T09:15:16.445Z,7.68
2023-03-29T09:18:03.967Z,8.20
2023-03-29T09:20:41.135Z,6.68
2023-03-29T09:23:44.867Z,6.88
2023-03-29T09:26:35.101Z,8.13
2023-03-29T09:29:33.678Z,5.35
2023-03-29T09:32:05.335Z,9.38
2023-03-29T09:34:42.234Z,7.38
2023-03-29T09:37:23.313Z,6.72
2023-03-29T09:39:56.020Z,7.40
2023-03-29T09:42:31.375Z,8.18
2023-03-29T09:45:08.730Z,5.80
2023-03-29T09:47:47.570Z,6.90
2023-03-29T09:50:30.972Z,5.68
2023-03-29T09:53:02.677Z,4.90
2023-03-29T09:55:37.373Z,5.72
2023-03-29T09:58:27.750Z,6.47
2023-03-29T10:00:59.474Z,6.95
2023-03-29T10:03:29.906Z,3.85
2023-03-29T10:06:10.111Z,8.82
2023-03-29T10:08:44.489Z,5.50
2023-03-29T10:11:22.431Z,6.32
2023-03-29T10:13:55.391Z,4.70
2023-03-29T10:16:24.777Z,7.15
2023-03-29T10:18:54.912Z,7.55
2023-03-29T10:21:24.048Z,8.82
2023-03-29T10:23:59.783Z,7.75
2023-03-29T10:26:33.022Z,7.90
2023-03-29T10:29:05.609Z,7.60
2023-03-29T10:31:34.244Z,8.52
2023-03-29T10:34:04.442Z,8.73
2023-03-29T10:36:32.718Z,10.88
2023-03-29T10:39:05.616Z,8.00
2023-03-29T10:41:36.016Z,9.20
2023-03-29T10:44:04.461Z,6.88
2023-03-29T10:46:40.397Z,6.20
2023-03-29T10:49:19.247Z,6.55
2023-03-29T10:51:49.515Z,7.55
2023-03-29T10:54:21.164Z,4.38
2023-03-29T10:56:55.798Z,6.43
2023-03-29T10:59:31.858Z,4.72
2023-03-29T11:02:30.590Z,4.85
2023-03-29T11:05:10.763Z,6.07
2023-03-29T11:07:49.867Z,3.53
2023-03-29T11:10:31.566Z,3.20
2023-03-29T11:13:11.308Z,3.78
2023-03-29T11:15:54.983Z,4.53
2023-03-29T11:18:47.624Z,5.80
2023-03-29T11:21:24.604Z,8.43
2023-03-29T11:24:06.118Z,6.05
2023-03-29T11:26:43.086Z,6.82
2023-03-29T11:29:17.016Z,4.82
2023-03-29T11:31:57.044Z,9.10
2023-03-29T11:34:32.971Z,4.85
2023-03-29T11:37:23.353Z,4.28
2023-03-29T11:40:05.464Z,4.13
2023-03-29T11:42:39.407Z,4.95
2023-03-29T11:45:16.705Z,4.43
2023-03-29T11:47:47.626Z,6.18
2023-03-29T11:50:20.406Z,5.82
2023-03-29T11:52:54.783Z,5.28
2023-03-29T11:55:26.684Z,11.48
2023-03-29T11:57:59.781Z,3.95
2023-03-29T12:00:35.178Z,5.63
2023-03-29T12:03:13.516Z,5.03
2023-03-29T12:05:46.170Z,4.55
2023-03-29T12:08:17.246Z,10.27
2023-03-29T12:10:51.697Z,5.28
2023-03-29T12:13:24.784Z,3.92
2023-03-29T12:15:59.202Z,5.47
2023-03-29T12:18:31.430Z,4.68
2023-03-29T12:21:02.082Z,5.10
2023-03-29T12:23:33.659Z,4.72
2023-03-29T12:26:06.899Z,3.58
2023-03-29T12:28:56.913Z,4.15
2023-03-29T12:31:32.970Z,2.72
2023-03-29T12:34:23.117Z,5.50
2023-03-29T12:37:13.846Z,4.90
2023-03-29T12:40:12.691Z,5.60
2023-03-29T12:43:03.057Z,6.90
2023-03-29T12:45:56.552Z,6.15
2023-03-29T12:48:30.320Z,6.47
2023-03-29T12:51:02.137Z,3.42
2023-03-29T12:53:35.085Z,6.43
2023-03-29T12:56:15.990Z,6.22
2023-03-29T12:58:56.456Z,3.40
2023-03-29T13:01:29.753Z,3.33
2023-03-29T13:04:16.068Z,5.05
2023-03-29T13:07:04.290Z,3.72
2023-03-29T13:09:37.733Z,3.45
2023-03-29T13:12:09.298Z,4.07
2023-03-29T13:14:40.990Z,4.45
2023-03-29T13:17:19.462Z,3.17
2023-03-29T13:19:59.077Z,6.03
2023-03-29T13:23:05.467Z,4.55
2023-03-29T13:25:45.876Z,4.47
2023-03-29T13:28:23.512Z,4.53
2023-03-29T13:30:59.802Z,3.75
2023-03-29T13:33:49.936Z,3.35
2023-03-29T13:36:34.090Z,3.58
2023-03-29T13:39:05.692Z,4.88
2023-03-29T13:41:46.952Z,6.57
2023-03-29T13:44:41.402Z,5.13
2023-03-29T13:47:16.750Z,4.50
2023-03-29T13:49:51.683Z,3.55
2023-03-29T13:52:26.609Z,6.65
2023-03-29T13:54:59.989Z,5.90
2023-03-29T13:57:36.910Z,5.80
2023-03-29T14:00:13.816Z,3.25
2023-03-29T14:02:48.732Z,3.70
2023-03-29T14:05:19.729Z,6.43
2023-03-29T14:07:52.905Z,4.90
2023-03-29T14:10:27.044Z,3.90
2023-03-29T14:13:07.026Z,3.53
2023-03-29T14:15:45.729Z,4.72
2023-03-29T14:18:16.748Z,3.20
2023-03-29T14:20:46.535Z,3.63
2023-03-29T14:23:21.460Z,4.80
2023-03-29T14:25:49.781Z,7.07
2023-03-29T14:28:22.441Z,3.28
2023-03-29T14:30:52.899Z,4.03
2023-03-29T14:33:28.678Z,7.47
2023-03-29T14:35:58.796Z,2.40
2023-03-29T14:38:29.089Z,3.47
2023-03-29T14:41:00.447Z,5.70
2023-03-29T14:43:31.608Z,7.60
2023-03-29T14:46:03.115Z,5.13
2023-03-29T14:48:33.532Z,5.57
2023-03-29T14:51:02.172Z,5.10
2023-03-29T14:53:34.573Z,3.83
2023-03-29T14:56:03.534Z,5.90
2023-03-29T14:58:34.470Z,6.65
2023-03-29T15:01:06.234Z,4.05
2023-03-29T15:03:43.995Z,4.32
2023-03-29T15:06:13.665Z,7.35
2023-03-29T15:08:57.650Z,5.30
2023-03-29T15:11:31.291Z,4.90
2023-03-29T15:14:04.867Z,7.40
2023-03-29T15:16:33.660Z,3.35
2023-03-29T15:19:02.492Z,5.85
2023-03-29T15:21:34.203Z,5.72
2023-03-29T15:24:05.055Z,6.57
2023-03-29T15:26:34.563Z,5.00
2023-03-29T15:29:08.339Z,5.40
2023-03-29T15:31:39.690Z,4.22
2023-03-29T15:34:10.611Z,5.50
2023-03-29T15:36:42.621Z,6.40
2023-03-29T15:39:23.716Z,5.45
2023-03-29T15:41:53.639Z,7.50
2023-03-29T15:44:26.503Z,4.60
2023-03-29T15:47:00.026Z,4.20
2023-03-29T15:49:28.059Z,3.58
2023-03-29T15:51:55.758Z,4.68
2023-03-29T15:54:25.464Z,5.03
2023-03-29T15:56:58.316Z,4.25
2023-03-29T15:59:26.411Z,6.82
2023-03-29T16:02:13.723Z,7.32
2023-03-29T16:04:41.773Z,6.63
2023-03-29T16:07:14.754Z,7.53
2023-03-29T16:09:44.356Z,4.18
2023-03-29T16:12:12.644Z,6.18
2023-03-29T16:14:42.598Z,11.50
2023-03-29T16:17:11.131Z,5.35
2023-03-29T16:19:38.945Z,4.88
2023-03-29T16:22:07.715Z,5.25
2023-03-29T16:24:36.204Z,7.10
2023-03-29T16:27:05.625Z,6.47
2023-03-29T16:29:33.572Z,10.90
2023-03-29T16:32:02.491Z,10.75
2023-03-29T16:34:31.582Z,7.50
2023-03-29T16:36:59.794Z,9.57
2023-03-29T16:39:27.622Z,6.00
2023-03-29T16:41:55.847Z,7.10
2023-03-29T16:44:27.805Z,9.18
2023-03-29T16:46:58.281Z,5.45
2023-03-29T16:49:26.591Z,6.18
2023-03-29T16:51:54.723Z,7.65
2023-03-29T16:54:25.976Z,8.02
2023-03-29T16:56:54.219Z,6.40
2023-03-29T16:59:22.148Z,9.93
2023-03-29T17:01:52.492Z,6.85
2023-03-29T17:04:20.632Z,4.45
2023-03-29T17:06:48.962Z,6.28
2023-03-29T17:09:17.798Z,4.57
2023-03-29T17:11:45.935Z,8.63
2023-03-29T17:14:13.928Z,7.60
2023-03-29T17:16:41.760Z,4.55
2023-03-29T17:19:11.443Z,6.78
2023-03-29T17:21:39.140Z,7.57
2023-03-29T17:24:10.212Z,5.82
2023-03-29T17:26:38.620Z,10.18
2023-03-29T17:29:19.433Z,5.22
2023-03-29T17:31:49.488Z,7.57
2023-03-29T17:34:19.837Z,5.47
2023-03-29T17:36:49.244Z,8.95
2023-03-29T17:39:18.914Z,5.38
2023-03-29T17:41:47.892Z,9.68
2023-03-29T17:44:15.969Z,9.88
2023-03-29T17:46:44.234Z,6.72
2023-03-29T17:49:13.238Z,6.53
2023-03-29T17:51:42.769Z,6.22
2023-03-29T17:54:10.865Z,7.05
2023-03-29T17:56:38.900Z,6.50
2023-03-29T17:59:06.937Z,9.80
2023-03-29T18:01:37.042Z,8.18
2023-03-29T18:04:07.800Z,7.07
2023-03-29T18:06:35.601Z,14.40
2023-03-29T18:09:08.012Z,6.30
2023-03-29T18:11:37.539Z,7.32
2023-03-29T18:14:05.785Z,6.72
2023-03-29T18:16:34.211Z,7.50
2023-03-29T18:19:02.266Z,9.85
2023-03-29T18:21:30.747Z,8.40
2023-03-29T18:23:58.799Z,12.32
2023-03-29T18:26:28.748Z,8.05
2023-03-29T18:28:56.856Z,8.10
2023-03-29T18:31:25.257Z,6.55
2023-03-29T18:33:53.258Z,4.93
2023-03-29T18:36:21.704Z,7.15
2023-03-29T18:38:49.643Z,11.32
2023-03-29T18:41:17.633Z,13.98
2023-03-29T18:44:07.957Z,12.77
2023-03-29T18:46:42.396Z,11.32
2023-03-29T18:49:13.460Z,8.85
2023-03-29T18:51:42.423Z,8.13
2023-03-29T18:54:11.235Z,10.20
2023-03-29T18:56:41.853Z,6.63
2023-03-29T18:59:11.849Z,10.25
2023-03-29T19:01:40.231Z,11.85
2023-03-29T19:04:10.731Z,8.10
2023-03-29T19:06:41.597Z,7.72
2023-03-29T19:09:10.206Z,7.97
2023-03-29T19:11:38.556Z,8.57
2023-03-29T19:14:09.810Z,8.75
2023-03-29T19:16:57.024Z,10.07
2023-03-29T19:19:32.518Z,7.82
2023-03-29T19:22:03.062Z,7.72
2023-03-29T19:24:36.227Z,7.07
2023-03-29T19:27:04.543Z,14.18
2023-03-29T19:29:34.653Z,10.88
2023-03-29T19:32:07.735Z,8.35
2023-03-29T19:34:38.527Z,6.60
2023-03-29T19:37:09.880Z,10.80
2023-03-29T19:39:44.260Z,8.77
2023-03-29T19:42:15.526Z,6.28
2023-03-29T19:44:48.302Z,8.70
2023-03-29T19:47:24.578Z,5.63
2023-03-29T19:49:58.371Z,8.35
2023-03-29T19:52:29.536Z,6.65
2023-03-29T19:55:02.480Z,7.22
2023-03-29T19:57:34.504Z,8.68
2023-03-29T20:00:08.275Z,10.15
2023-03-29T20:02:49.664Z,12.88
2023-03-29T20:05:34.873Z,7.05
2023-03-29T20:08:05.512Z,10.65
2023-03-29T20:10:34.970Z,6.57
2023-03-29T20:13:38.409Z,8.43
2023-03-29T20:16:10.135Z,6.93
2023-03-29T20:18:43.226Z,8.63
2023-03-29T20:21:17.033Z,6.88
2023-03-29T20:23:45.787Z,10.25
2023-03-29T20:26:18.276Z,10.00
2023-03-29T20:28:50.667Z,10.90
2023-03-29T20:31:19.497Z,11.00
2023-03-29T20:33:49.339Z,9.18
2023-03-29T20:36:18.793Z,8.15
2023-03-29T20:38:47.821Z,7.40
2023-03-29T20:41:16.729Z,7.18
2023-03-29T20:43:46.532Z,9.27
2023-03-29T20:46:18.515Z,8.40
2023-03-29T20:48:54.406Z,9.70
2023-03-29T20:51:28.298Z,10.05
2023-03-29T20:54:02.719Z,9.43
2023-03-29T20:56:31.414Z,6.85
2023-03-29T20:59:00.810Z,10.95
2023-03-29T21:01:30.298Z,10.38
2023-03-29T21:04:00.008Z,11.20
2023-03-29T21:06:28.226Z,10.40
2023-03-29T21:08:56.210Z,8.38
2023-03-29T21:11:24.162Z,7.20
2023-03-29T21:13:53.084Z,7.00
2023-03-29T21:16:21.166Z,6.32
2023-03-29T21:18:49.116Z,7.50
2023-03-29T21:21:26.522Z,4.50
2023-03-29T21:23:54.564Z,7.18
2023-03-29T21:26:23.148Z,7.72
2023-03-29T21:29:11.736Z,9.10
2023-03-29T21:31:40.296Z,12.23
2023-03-29T21:34:08.354Z,9.05
2023-03-29T21:36:37.815Z,7.00
2023-03-29T21:39:06.043Z,9.15
2023-03-29T21:41:34.843Z,7.80
2023-03-29T21:44:02.925Z,8.40
2023-03-29T21:46:31.309Z,6.28
2023-03-29T21:48:59.417Z,7.68
2023-03-29T21:51:27.340Z,8.23
2023-03-29T21:53:56.879Z,6.55
2023-03-29T21:56:25.091Z,10.35
2023-03-29T21:58:53.314Z,7.93
2023-03-29T22:01:21.559Z,8.18
2023-03-29T22:03:49.872Z,11.23
2023-03-29T22:06:17.851Z,8.27
2023-03-29T22:08:46.972Z,7.22
2023-03-29T22:11:17.557Z,6.40
2023-03-29T22:13:45.836Z,8.27
2023-03-29T22:16:14.434Z,5.93
2023-03-29T22:18:42.729Z,6.60
2023-03-29T22:21:27.225Z,8.20
2023-03-29T22:23:56.624Z,7.72
2023-03-29T22:26:30.786Z,7.28
2023-03-29T22:29:00.972Z,7.20
2023-03-29T22:31:30.260Z,9.63
2023-03-29T22:33:58.854Z,5.65
2023-03-29T22:36:29.592Z,6.40
2023-03-29T22:38:58.062Z,8.77
2023-03-29T22:41:28.436Z,6.25
2023-03-29T22:43:58.165Z,10.23
2023-03-29T22:46:26.584Z,8.63
2023-03-29T22:48:54.837Z,8.43
2023-03-29T22:51:22.901Z,7.97
2023-03-29T22:53:51.074Z,7.82
2023-03-29T22:56:18.998Z,10.02
2023-03-29T22:58:48.627Z,8.05
2023-03-29T23:01:16.598Z,7.70
2023-03-29T23:03:44.692Z,7.20
2023-03-29T23:06:12.713Z,5.93
2023-03-29T23:08:40.774Z,5.28
2023-03-29T23:11:08.684Z,7.28
2023-03-29T23:13:36.762Z,7.30
2023-03-29T23:16:07.153Z,8.70
2023-03-29T23:18:37.839Z,6.68
2023-03-29T23:21:06.777Z,7.85
2023-03-29T23:23:35.373Z,6.15
2023-03-29T23:26:03.405Z,6.00
2023-03-29T23:28:31.919Z,5.90
2023-03-29T23:31:01.209Z,8.50
2023-03-29T23:33:35.670Z,7.03
2023-03-29T23:36:06.508Z,8.23
2023-03-29T23:38:36.321Z,7.18
2023-03-29T23:41:06.947Z,4.47
2023-03-29T23:43:37.454Z,6.32
2023-03-29T23:46:07.607Z,6.60
2023-03-29T23:48:37.137Z,6.60
2023-03-29T23:51:06.032Z,6.35
2023-03-29T23:53:34.237Z,7.18
2023-03-29T23:56:03.760Z,5.93
2023-03-29T23:58:33.203Z,7.95
